Terminal Aerodrome Forecast
Issued by NWS

Home | Current Version | Previous Version | Text Only | Print | Product List | Glossary On
Versions: 1 2 3 4 5 6 7 8 9 10 11 12 13 14 15 16 17 18 19 20 21 22 23 24 25 26 27 28 29
000
FTUS43 KPAH 140900 AAA
TAFOWB
TAF AMD
KOWB 140904Z 1409/1506 VRB05KT 4SM -TSRA BR BKN035CB
      TEMPO 1410/1413 2SM TSRA BR
     FM141300 25007KT P6SM OVC025
     FM141700 27008KT P6SM BKN060
     FM150000 30009KT P6SM -SHRA BKN050=

USA.gov is the U.S. government's official web portal to all federal, state and local government web resources and services.